sensor_id;sensor_type;location;lat;lon;timestamp;P1;durP1;ratioP1;P2;durP2;ratioP2
17059;SDS011;8646;49.716;9.266;2022-10-18T00:01:16;31.17;;;6.43;;
17059;SDS011;8646;49.716;9.266;2022-10-18T00:04:19;27.27;;;7.17;;
17059;SDS011;8646;49.716;9.266;2022-10-18T00:07:22;33.13;;;7.23;;
17059;SDS011;8646;49.716;9.266;2022-10-18T00:10:25;48.83;;;7.40;;
17059;SDS011;8646;49.716;9.266;2022-10-18T00:13:29;18.07;;;6.10;;
17059;SDS011;8646;49.716;9.266;2022-10-18T00:16:33;17.90;;;6.60;;
17059;SDS011;8646;49.716;9.266;2022-10-18T00:19:36;23.43;;;6.63;;
17059;SDS011;8646;49.716;9.266;2022-10-18T00:22:39;17.93;;;6.57;;
17059;SDS011;8646;49.716;9.266;2022-10-18T00:25:43;20.53;;;6.03;;
17059;SDS011;8646;49.716;9.266;2022-10-18T00:28:46;17.40;;;6.80;;
17059;SDS011;8646;49.716;9.266;2022-10-18T00:31:53;17.73;;;6.30;;
17059;SDS011;8646;49.716;9.266;2022-10-18T00:34:56;10.53;;;5.57;;
17059;SDS011;8646;49.716;9.266;2022-10-18T00:37:59;12.30;;;5.37;;
17059;SDS011;8646;49.716;9.266;2022-10-18T00:41:02;14.70;;;4.97;;
17059;SDS011;8646;49.716;9.266;2022-10-18T00:44:58;11.00;;;5.83;;
17059;SDS011;8646;49.716;9.266;2022-10-18T00:47:51;16.87;;;6.13;;
17059;SDS011;8646;49.716;9.266;2022-10-18T00:50:57;21.57;;;6.97;;
17059;SDS011;8646;49.716;9.266;2022-10-18T00:54:00;27.90;;;6.93;;
17059;SDS011;8646;49.716;9.266;2022-10-18T00:57:03;22.97;;;7.10;;
17059;SDS011;8646;49.716;9.266;2022-10-18T01:00:07;29.47;;;9.70;;
17059;SDS011;8646;49.716;9.266;2022-10-18T01:03:12;49.13;;;16.33;;
17059;SDS011;8646;49.716;9.266;2022-10-18T01:06:15;38.93;;;11.60;;
17059;SDS011;8646;49.716;9.266;2022-10-18T01:09:20;29.73;;;9.93;;
17059;SDS011;8646;49.716;9.266;2022-10-18T01:12:32;29.90;;;9.90;;
17059;SDS011;8646;49.716;9.266;2022-10-18T01:15:48;20.47;;;8.33;;
17059;SDS011;8646;49.716;9.266;2022-10-18T01:19:05;23.33;;;7.93;;
17059;SDS011;8646;49.716;9.266;2022-10-18T01:22:23;17.93;;;7.60;;
17059;SDS011;8646;49.716;9.266;2022-10-18T01:25:33;15.80;;;7.50;;
17059;SDS011;8646;49.716;9.266;2022-10-18T01:28:45;16.27;;;7.20;;
17059;SDS011;8646;49.716;9.266;2022-10-18T01:31:59;18.40;;;7.87;;
17059;SDS011;8646;49.716;9.266;2022-10-18T01:35:06;25.60;;;8.33;;
17059;SDS011;8646;49.716;9.266;2022-10-18T01:38:13;18.27;;;7.80;;
17059;SDS011;8646;49.716;9.266;2022-10-18T01:41:20;22.77;;;7.60;;
17059;SDS011;8646;49.716;9.266;2022-10-18T01:44:25;43.17;;;9.47;;
17059;SDS011;8646;49.716;9.266;2022-10-18T01:47:34;27.40;;;8.60;;
17059;SDS011;8646;49.716;9.266;2022-10-18T01:50:38;22.23;;;8.67;;
17059;SDS011;8646;49.716;9.266;2022-10-18T01:53:41;21.60;;;8.13;;
17059;SDS011;8646;49.716;9.266;2022-10-18T01:56:44;33.67;;;9.30;;
17059;SDS011;8646;49.716;9.266;2022-10-18T01:59:56;33.47;;;9.33;;
17059;SDS011;8646;49.716;9.266;2022-10-18T02:03:05;26.57;;;8.40;;
17059;SDS011;8646;49.716;9.266;2022-10-18T02:06:16;23.97;;;7.60;;
17059;SDS011;8646;49.716;9.266;2022-10-18T02:09:24;21.00;;;7.67;;
17059;SDS011;8646;49.716;9.266;2022-10-18T02:12:32;14.93;;;6.90;;
17059;SDS011;8646;49.716;9.266;2022-10-18T02:15:39;18.37;;;7.50;;
17059;SDS011;8646;49.716;9.266;2022-10-18T02:18:48;25.20;;;7.77;;
17059;SDS011;8646;49.716;9.266;2022-10-18T02:21:54;33.40;;;9.03;;
17059;SDS011;8646;49.716;9.266;2022-10-18T02:25:01;32.50;;;9.27;;
17059;SDS011;8646;49.716;9.266;2022-10-18T02:28:07;22.13;;;8.27;;
17059;SDS011;8646;49.716;9.266;2022-10-18T02:31:12;25.80;;;8.40;;
17059;SDS011;8646;49.716;9.266;2022-10-18T02:34:22;26.60;;;8.33;;
17059;SDS011;8646;49.716;9.266;2022-10-18T02:37:29;24.03;;;8.33;;
17059;SDS011;8646;49.716;9.266;2022-10-18T02:40:36;24.57;;;9.07;;
17059;SDS011;8646;49.716;9.266;2022-10-18T02:43:39;30.50;;;8.23;;
17059;SDS011;8646;49.716;9.266;2022-10-18T02:46:42;31.20;;;9.00;;
17059;SDS011;8646;49.716;9.266;2022-10-18T02:49:47;44.83;;;9.80;;
17059;SDS011;8646;49.716;9.266;2022-10-18T02:52:50;48.73;;;10.03;;
17059;SDS011;8646;49.716;9.266;2022-10-18T02:55:53;38.17;;;10.27;;
17059;SDS011;8646;49.716;9.266;2022-10-18T02:58:56;50.27;;;9.97;;
17059;SDS011;8646;49.716;9.266;2022-10-18T03:01:59;46.13;;;10.43;;
17059;SDS011;8646;49.716;9.266;2022-10-18T03:05:04;34.10;;;9.63;;
17059;SDS011;8646;49.716;9.266;2022-10-18T03:08:08;25.37;;;8.17;;
17059;SDS011;8646;49.716;9.266;2022-10-18T03:11:11;37.33;;;7.97;;
17059;SDS011;8646;49.716;9.266;2022-10-18T03:14:14;20.17;;;7.63;;
17059;SDS011;8646;49.716;9.266;2022-10-18T03:17:17;22.93;;;8.17;;
17059;SDS011;8646;49.716;9.266;2022-10-18T03:20:21;35.23;;;8.30;;
17059;SDS011;8646;49.716;9.266;2022-10-18T03:23:24;30.97;;;9.37;;
17059;SDS011;8646;49.716;9.266;2022-10-18T03:26:27;38.00;;;9.97;;
17059;SDS011;8646;49.716;9.266;2022-10-18T03:29:30;35.33;;;10.17;;
17059;SDS011;8646;49.716;9.266;2022-10-18T03:32:33;32.27;;;8.80;;
17059;SDS011;8646;49.716;9.266;2022-10-18T03:35:37;21.80;;;8.70;;
17059;SDS011;8646;49.716;9.266;2022-10-18T03:38:40;37.30;;;9.87;;
17059;SDS011;8646;49.716;9.266;2022-10-18T03:41:43;31.53;;;9.13;;
17059;SDS011;8646;49.716;9.266;2022-10-18T03:44:46;24.90;;;9.13;;
17059;SDS011;8646;49.716;9.266;2022-10-18T03:47:49;29.47;;;8.83;;
17059;SDS011;8646;49.716;9.266;2022-10-18T03:50:53;33.97;;;9.07;;
17059;SDS011;8646;49.716;9.266;2022-10-18T03:53:56;29.83;;;9.90;;
17059;SDS011;8646;49.716;9.266;2022-10-18T03:56:59;60.70;;;12.40;;
17059;SDS011;8646;49.716;9.266;2022-10-18T04:00:02;52.70;;;12.13;;
17059;SDS011;8646;49.716;9.266;2022-10-18T04:03:06;54.17;;;12.20;;
17059;SDS011;8646;49.716;9.266;2022-10-18T04:06:10;52.07;;;12.53;;
17059;SDS011;8646;49.716;9.266;2022-10-18T04:09:14;31.47;;;11.00;;
17059;SDS011;8646;49.716;9.266;2022-10-18T04:12:16;21.37;;;9.90;;
17059;SDS011;8646;49.716;9.266;2022-10-18T04:15:20;24.17;;;8.60;;
17059;SDS011;8646;49.716;9.266;2022-10-18T04:18:22;16.60;;;9.03;;
17059;SDS011;8646;49.716;9.266;2022-10-18T04:21:26;29.17;;;11.23;;
17059;SDS011;8646;49.716;9.266;2022-10-18T04:24:29;25.87;;;10.13;;
17059;SDS011;8646;49.716;9.266;2022-10-18T04:27:32;28.13;;;10.77;;
17059;SDS011;8646;49.716;9.266;2022-10-18T04:30:35;24.67;;;10.40;;
17059;SDS011;8646;49.716;9.266;2022-10-18T04:33:38;28.77;;;11.40;;
17059;SDS011;8646;49.716;9.266;2022-10-18T04:36:42;27.87;;;9.87;;
17059;SDS011;8646;49.716;9.266;2022-10-18T04:39:45;31.03;;;10.37;;
17059;SDS011;8646;49.716;9.266;2022-10-18T04:42:53;30.03;;;10.77;;
17059;SDS011;8646;49.716;9.266;2022-10-18T04:45:57;31.80;;;10.27;;
17059;SDS011;8646;49.716;9.266;2022-10-18T04:49:01;38.33;;;9.87;;
17059;SDS011;8646;49.716;9.266;2022-10-18T04:52:05;34.83;;;10.50;;
17059;SDS011;8646;49.716;9.266;2022-10-18T04:55:08;46.87;;;11.23;;
17059;SDS011;8646;49.716;9.266;2022-10-18T04:58:11;38.93;;;11.13;;
17059;SDS011;8646;49.716;9.266;2022-10-18T05:01:14;27.83;;;10.10;;
17059;SDS011;8646;49.716;9.266;2022-10-18T05:04:19;31.37;;;9.50;;
17059;SDS011;8646;49.716;9.266;2022-10-18T05:07:23;30.17;;;9.43;;
17059;SDS011;8646;49.716;9.266;2022-10-18T05:10:26;26.53;;;8.80;;
17059;SDS011;8646;49.716;9.266;2022-10-18T05:13:31;25.20;;;10.13;;
17059;SDS011;8646;49.716;9.266;2022-10-18T05:16:37;31.00;;;10.33;;
17059;SDS011;8646;49.716;9.266;2022-10-18T05:19:41;24.03;;;8.80;;
17059;SDS011;8646;49.716;9.266;2022-10-18T05:22:45;25.67;;;9.67;;
17059;SDS011;8646;49.716;9.266;2022-10-18T05:25:49;28.07;;;9.67;;
17059;SDS011;8646;49.716;9.266;2022-10-18T05:28:52;29.73;;;9.33;;
17059;SDS011;8646;49.716;9.266;2022-10-18T05:31:55;32.07;;;10.37;;
17059;SDS011;8646;49.716;9.266;2022-10-18T05:34:58;22.83;;;9.30;;
17059;SDS011;8646;49.716;9.266;2022-10-18T05:38:02;29.37;;;9.73;;
17059;SDS011;8646;49.716;9.266;2022-10-18T05:41:06;28.07;;;9.90;;
17059;SDS011;8646;49.716;9.266;2022-10-18T05:44:09;30.03;;;9.33;;
17059;SDS011;8646;49.716;9.266;2022-10-18T05:47:11;25.23;;;9.40;;
17059;SDS011;8646;49.716;9.266;2022-10-18T05:50:14;34.00;;;10.07;;
17059;SDS011;8646;49.716;9.266;2022-10-18T05:53:19;26.70;;;9.30;;
17059;SDS011;8646;49.716;9.266;2022-10-18T05:56:38;23.80;;;9.70;;
17059;SDS011;8646;49.716;9.266;2022-10-18T05:59:42;27.83;;;9.87;;
17059;SDS011;8646;49.716;9.266;2022-10-18T06:02:45;30.57;;;11.53;;
17059;SDS011;8646;49.716;9.266;2022-10-18T06:05:48;29.87;;;11.23;;
17059;SDS011;8646;49.716;9.266;2022-10-18T06:08:52;37.87;;;11.27;;
17059;SDS011;8646;49.716;9.266;2022-10-18T06:11:55;26.70;;;10.27;;
17059;SDS011;8646;49.716;9.266;2022-10-18T06:14:59;24.33;;;10.13;;
17059;SDS011;8646;49.716;9.266;2022-10-18T06:18:02;27.63;;;10.33;;
17059;SDS011;8646;49.716;9.266;2022-10-18T06:21:05;24.70;;;9.47;;
17059;SDS011;8646;49.716;9.266;2022-10-18T06:24:11;31.17;;;10.50;;
17059;SDS011;8646;49.716;9.266;2022-10-18T06:27:14;21.37;;;9.23;;
17059;SDS011;8646;49.716;9.266;2022-10-18T06:30:17;26.30;;;9.57;;
17059;SDS011;8646;49.716;9.266;2022-10-18T06:33:20;25.53;;;9.53;;
17059;SDS011;8646;49.716;9.266;2022-10-18T06:36:23;32.80;;;9.30;;
17059;SDS011;8646;49.716;9.266;2022-10-18T06:39:27;21.47;;;9.13;;
17059;SDS011;8646;49.716;9.266;2022-10-18T06:42:30;27.13;;;8.67;;
17059;SDS011;8646;49.716;9.266;2022-10-18T06:45:34;24.17;;;9.30;;
17059;SDS011;8646;49.716;9.266;2022-10-18T06:48:38;26.77;;;9.93;;
17059;SDS011;8646;49.716;9.266;2022-10-18T06:51:41;26.07;;;9.30;;
17059;SDS011;8646;49.716;9.266;2022-10-18T06:54:47;27.60;;;10.07;;
17059;SDS011;8646;49.716;9.266;2022-10-18T06:57:50;22.83;;;9.60;;
17059;SDS011;8646;49.716;9.266;2022-10-18T07:00:54;21.93;;;9.20;;
17059;SDS011;8646;49.716;9.266;2022-10-18T07:03:57;24.97;;;9.90;;
17059;SDS011;8646;49.716;9.266;2022-10-18T07:07:00;24.23;;;10.57;;
17059;SDS011;8646;49.716;9.266;2022-10-18T07:10:05;32.00;;;11.37;;
17059;SDS011;8646;49.716;9.266;2022-10-18T07:13:13;25.80;;;10.13;;
17059;SDS011;8646;49.716;9.266;2022-10-18T07:16:32;25.97;;;10.17;;
17059;SDS011;8646;49.716;9.266;2022-10-18T07:19:36;25.67;;;10.40;;
17059;SDS011;8646;49.716;9.266;2022-10-18T07:22:39;26.27;;;9.37;;
17059;SDS011;8646;49.716;9.266;2022-10-18T07:25:43;29.17;;;9.37;;
17059;SDS011;8646;49.716;9.266;2022-10-18T07:28:47;27.17;;;9.67;;
17059;SDS011;8646;49.716;9.266;2022-10-18T07:31:52;20.87;;;8.90;;
17059;SDS011;8646;49.716;9.266;2022-10-18T07:34:54;27.73;;;9.87;;
17059;SDS011;8646;49.716;9.266;2022-10-18T07:37:57;22.67;;;9.00;;
17059;SDS011;8646;49.716;9.266;2022-10-18T07:41:03;16.30;;;8.10;;
17059;SDS011;8646;49.716;9.266;2022-10-18T07:44:07;19.47;;;8.57;;
17059;SDS011;8646;49.716;9.266;2022-10-18T07:47:11;21.17;;;7.70;;
17059;SDS011;8646;49.716;9.266;2022-10-18T07:50:16;21.17;;;8.33;;
17059;SDS011;8646;49.716;9.266;2022-10-18T07:53:19;25.90;;;8.47;;
17059;SDS011;8646;49.716;9.266;2022-10-18T07:56:24;19.87;;;8.23;;
17059;SDS011;8646;49.716;9.266;2022-10-18T07:59:28;20.17;;;8.67;;
17059;SDS011;8646;49.716;9.266;2022-10-18T08:02:30;21.63;;;9.37;;
17059;SDS011;8646;49.716;9.266;2022-10-18T08:05:34;25.23;;;9.77;;
17059;SDS011;8646;49.716;9.266;2022-10-18T08:08:38;25.37;;;9.83;;
17059;SDS011;8646;49.716;9.266;2022-10-18T08:11:43;19.60;;;9.83;;
17059;SDS011;8646;49.716;9.266;2022-10-18T08:14:46;21.27;;;9.10;;
17059;SDS011;8646;49.716;9.266;2022-10-18T08:17:49;26.57;;;9.90;;
17059;SDS011;8646;49.716;9.266;2022-10-18T08:20:51;26.90;;;10.23;;
17059;SDS011;8646;49.716;9.266;2022-10-18T08:23:54;21.93;;;9.53;;
17059;SDS011;8646;49.716;9.266;2022-10-18T08:26:58;21.70;;;9.70;;
17059;SDS011;8646;49.716;9.266;2022-10-18T08:30:02;21.53;;;9.73;;
17059;SDS011;8646;49.716;9.266;2022-10-18T08:33:05;19.23;;;10.30;;
17059;SDS011;8646;49.716;9.266;2022-10-18T08:36:10;24.17;;;9.87;;
17059;SDS011;8646;49.716;9.266;2022-10-18T08:39:14;20.40;;;9.73;;
17059;SDS011;8646;49.716;9.266;2022-10-18T08:42:34;22.60;;;9.73;;
17059;SDS011;8646;49.716;9.266;2022-10-18T08:45:48;23.40;;;9.57;;
17059;SDS011;8646;49.716;9.266;2022-10-18T08:48:54;20.67;;;9.80;;
17059;SDS011;8646;49.716;9.266;2022-10-18T08:51:58;19.83;;;9.93;;
17059;SDS011;8646;49.716;9.266;2022-10-18T08:55:02;20.73;;;9.77;;
17059;SDS011;8646;49.716;9.266;2022-10-18T08:58:16;17.33;;;9.20;;
17059;SDS011;8646;49.716;9.266;2022-10-18T09:01:24;21.20;;;9.47;;
17059;SDS011;8646;49.716;9.266;2022-10-18T09:04:37;19.30;;;9.00;;
17059;SDS011;8646;49.716;9.266;2022-10-18T09:07:57;16.73;;;9.13;;
17059;SDS011;8646;49.716;9.266;2022-10-18T09:11:17;16.83;;;8.97;;
17059;SDS011;8646;49.716;9.266;2022-10-18T09:14:42;17.63;;;8.33;;
17059;SDS011;8646;49.716;9.266;2022-10-18T09:18:01;14.43;;;9.13;;
17059;SDS011;8646;49.716;9.266;2022-10-18T09:21:16;16.67;;;7.97;;
17059;SDS011;8646;49.716;9.266;2022-10-18T09:24:24;15.50;;;8.43;;
17059;SDS011;8646;49.716;9.266;2022-10-18T09:27:32;16.27;;;8.27;;
17059;SDS011;8646;49.716;9.266;2022-10-18T09:30:47;15.97;;;7.80;;
17059;SDS011;8646;49.716;9.266;2022-10-18T09:34:00;16.43;;;8.20;;
17059;SDS011;8646;49.716;9.266;2022-10-18T09:37:08;13.20;;;7.03;;
17059;SDS011;8646;49.716;9.266;2022-10-18T09:40:14;15.50;;;7.10;;
17059;SDS011;8646;49.716;9.266;2022-10-18T09:43:21;17.67;;;8.20;;
17059;SDS011;8646;49.716;9.266;2022-10-18T09:46:29;22.63;;;7.90;;
17059;SDS011;8646;49.716;9.266;2022-10-18T09:49:35;15.20;;;7.63;;
17059;SDS011;8646;49.716;9.266;2022-10-18T09:52:45;15.17;;;7.70;;
17059;SDS011;8646;49.716;9.266;2022-10-18T09:55:55;13.67;;;7.80;;
17059;SDS011;8646;49.716;9.266;2022-10-18T09:59:02;12.53;;;6.93;;
17059;SDS011;8646;49.716;9.266;2022-10-18T10:02:08;14.53;;;7.10;;
17059;SDS011;8646;49.716;9.266;2022-10-18T10:05:14;16.63;;;7.33;;
17059;SDS011;8646;49.716;9.266;2022-10-18T10:08:17;15.00;;;7.87;;
17059;SDS011;8646;49.716;9.266;2022-10-18T10:11:34;17.67;;;7.40;;
17059;SDS011;8646;49.716;9.266;2022-10-18T10:14:41;21.30;;;7.47;;
17059;SDS011;8646;49.716;9.266;2022-10-18T10:17:54;11.27;;;7.23;;
17059;SDS011;8646;49.716;9.266;2022-10-18T10:20:58;11.30;;;7.23;;
17059;SDS011;8646;49.716;9.266;2022-10-18T10:24:05;14.00;;;7.37;;
17059;SDS011;8646;49.716;9.266;2022-10-18T10:27:13;13.70;;;7.03;;
17059;SDS011;8646;49.716;9.266;2022-10-18T10:30:23;13.70;;;6.83;;
17059;SDS011;8646;49.716;9.266;2022-10-18T10:33:31;10.10;;;6.40;;
17059;SDS011;8646;49.716;9.266;2022-10-18T10:36:35;13.57;;;7.00;;
17059;SDS011;8646;49.716;9.266;2022-10-18T10:40:02;11.43;;;6.60;;
17059;SDS011;8646;49.716;9.266;2022-10-18T10:43:20;15.13;;;6.40;;
17059;SDS011;8646;49.716;9.266;2022-10-18T10:46:41;10.57;;;5.90;;
17059;SDS011;8646;49.716;9.266;2022-10-18T10:49:46;8.60;;;5.43;;
17059;SDS011;8646;49.716;9.266;2022-10-18T10:52:52;10.10;;;5.20;;
17059;SDS011;8646;49.716;9.266;2022-10-18T10:55:56;9.77;;;5.10;;
17059;SDS011;8646;49.716;9.266;2022-10-18T10:59:05;12.87;;;6.00;;
17059;SDS011;8646;49.716;9.266;2022-10-18T11:02:19;11.47;;;5.90;;
17059;SDS011;8646;49.716;9.266;2022-10-18T11:05:26;9.83;;;6.40;;
17059;SDS011;8646;49.716;9.266;2022-10-18T11:08:30;14.67;;;6.67;;
17059;SDS011;8646;49.716;9.266;2022-10-18T11:11:39;10.37;;;6.60;;
17059;SDS011;8646;49.716;9.266;2022-10-18T11:14:52;13.10;;;6.70;;
17059;SDS011;8646;49.716;9.266;2022-10-18T11:18:02;12.73;;;6.20;;
17059;SDS011;8646;49.716;9.266;2022-10-18T11:21:20;13.07;;;5.40;;
17059;SDS011;8646;49.716;9.266;2022-10-18T11:24:26;12.60;;;6.00;;
17059;SDS011;8646;49.716;9.266;2022-10-18T11:27:31;11.80;;;5.70;;
17059;SDS011;8646;49.716;9.266;2022-10-18T11:30:44;14.87;;;5.90;;
17059;SDS011;8646;49.716;9.266;2022-10-18T11:34:03;15.50;;;5.70;;
17059;SDS011;8646;49.716;9.266;2022-10-18T11:37:24;8.70;;;5.60;;
17059;SDS011;8646;49.716;9.266;2022-10-18T11:40:43;8.67;;;5.90;;
17059;SDS011;8646;49.716;9.266;2022-10-18T11:43:52;13.07;;;5.70;;
17059;SDS011;8646;49.716;9.266;2022-10-18T11:47:04;10.33;;;5.67;;
17059;SDS011;8646;49.716;9.266;2022-10-18T11:50:18;11.93;;;5.83;;
17059;SDS011;8646;49.716;9.266;2022-10-18T11:53:30;24.37;;;9.87;;
17059;SDS011;8646;49.716;9.266;2022-10-18T11:56:43;13.50;;;6.23;;
17059;SDS011;8646;49.716;9.266;2022-10-18T11:59:54;17.17;;;7.50;;
17059;SDS011;8646;49.716;9.266;2022-10-18T12:03:12;14.13;;;6.83;;
17059;SDS011;8646;49.716;9.266;2022-10-18T12:06:22;18.43;;;6.77;;
17059;SDS011;8646;49.716;9.266;2022-10-18T12:09:31;14.33;;;6.30;;
17059;SDS011;8646;49.716;9.266;2022-10-18T12:12:39;10.13;;;6.47;;
17059;SDS011;8646;49.716;9.266;2022-10-18T12:15:47;14.33;;;7.80;;
17059;SDS011;8646;49.716;9.266;2022-10-18T12:18:52;19.00;;;8.00;;
17059;SDS011;8646;49.716;9.266;2022-10-18T12:22:01;13.43;;;6.67;;
17059;SDS011;8646;49.716;9.266;2022-10-18T12:25:12;15.37;;;7.10;;
17059;SDS011;8646;49.716;9.266;2022-10-18T12:28:20;15.13;;;7.40;;
17059;SDS011;8646;49.716;9.266;2022-10-18T12:31:32;13.57;;;6.70;;
17059;SDS011;8646;49.716;9.266;2022-10-18T12:34:41;89.27;;;50.10;;
17059;SDS011;8646;49.716;9.266;2022-10-18T12:38:00;62.67;;;35.97;;
17059;SDS011;8646;49.716;9.266;2022-10-18T12:41:19;24.17;;;10.40;;
17059;SDS011;8646;49.716;9.266;2022-10-18T12:44:25;8.37;;;4.73;;
17059;SDS011;8646;49.716;9.266;2022-10-18T12:47:32;9.40;;;4.70;;
17059;SDS011;8646;49.716;9.266;2022-10-18T12:50:36;10.23;;;5.20;;
17059;SDS011;8646;49.716;9.266;2022-10-18T12:53:41;9.33;;;5.00;;
17059;SDS011;8646;49.716;9.266;2022-10-18T12:56:47;12.67;;;4.67;;
17059;SDS011;8646;49.716;9.266;2022-10-18T12:59:51;8.03;;;4.50;;
17059;SDS011;8646;49.716;9.266;2022-10-18T13:13:49;8.03;;;4.30;;
17059;SDS011;8646;49.716;9.266;2022-10-18T13:17:03;6.43;;;4.33;;
17059;SDS011;8646;49.716;9.266;2022-10-18T13:20:18;8.30;;;3.63;;
17059;SDS011;8646;49.716;9.266;2022-10-18T13:23:31;7.63;;;3.60;;
17059;SDS011;8646;49.716;9.266;2022-10-18T13:26:45;6.47;;;3.50;;
17059;SDS011;8646;49.716;9.266;2022-10-18T13:30:25;3.53;;;2.60;;
17059;SDS011;8646;49.716;9.266;2022-10-18T13:33:33;8.87;;;3.00;;
17059;SDS011;8646;49.716;9.266;2022-10-18T13:36:39;4.63;;;2.87;;
17059;SDS011;8646;49.716;9.266;2022-10-18T13:39:43;5.67;;;3.40;;
17059;SDS011;8646;49.716;9.266;2022-10-18T13:42:46;7.67;;;3.20;;
17059;SDS011;8646;49.716;9.266;2022-10-18T13:45:54;5.10;;;2.90;;
17059;SDS011;8646;49.716;9.266;2022-10-18T13:48:58;9.20;;;2.90;;
17059;SDS011;8646;49.716;9.266;2022-10-18T13:52:04;6.03;;;2.70;;
17059;SDS011;8646;49.716;9.266;2022-10-18T13:55:32;4.77;;;2.20;;
17059;SDS011;8646;49.716;9.266;2022-10-18T13:58:48;10.77;;;2.83;;
17059;SDS011;8646;49.716;9.266;2022-10-18T14:02:36;6.50;;;3.30;;
17059;SDS011;8646;49.716;9.266;2022-10-18T14:05:59;6.87;;;3.03;;
17059;SDS011;8646;49.716;9.266;2022-10-18T14:09:07;6.37;;;2.90;;
17059;SDS011;8646;49.716;9.266;2022-10-18T14:12:38;4.43;;;2.70;;
17059;SDS011;8646;49.716;9.266;2022-10-18T14:15:46;6.53;;;2.70;;
17059;SDS011;8646;49.716;9.266;2022-10-18T14:18:55;7.30;;;3.00;;
17059;SDS011;8646;49.716;9.266;2022-10-18T14:22:06;5.57;;;2.67;;
17059;SDS011;8646;49.716;9.266;2022-10-18T14:25:19;5.53;;;3.17;;
17059;SDS011;8646;49.716;9.266;2022-10-18T14:28:24;10.67;;;2.90;;
17059;SDS011;8646;49.716;9.266;2022-10-18T14:31:50;2.70;;;1.63;;
17059;SDS011;8646;49.716;9.266;2022-10-18T14:34:55;3.30;;;0.80;;
17059;SDS011;8646;49.716;9.266;2022-10-18T14:38:19;3.67;;;1.00;;
17059;SDS011;8646;49.716;9.266;2022-10-18T14:41:24;2.90;;;1.23;;
17059;SDS011;8646;49.716;9.266;2022-10-18T14:44:29;3.50;;;1.40;;
17059;SDS011;8646;49.716;9.266;2022-10-18T14:47:33;2.40;;;0.70;;
17059;SDS011;8646;49.716;9.266;2022-10-18T14:50:39;1.73;;;0.40;;
17059;SDS011;8646;49.716;9.266;2022-10-18T14:53:44;0.60;;;0.50;;
17059;SDS011;8646;49.716;9.266;2022-10-18T14:56:48;1.00;;;0.77;;
17059;SDS011;8646;49.716;9.266;2022-10-18T14:59:52;2.73;;;0.83;;
17059;SDS011;8646;49.716;9.266;2022-10-18T15:02:58;2.50;;;0.50;;
17059;SDS011;8646;49.716;9.266;2022-10-18T15:06:04;1.93;;;1.13;;
17059;SDS011;8646;49.716;9.266;2022-10-18T15:09:08;8.70;;;5.60;;
17059;SDS011;8646;49.716;9.266;2022-10-18T15:12:14;11.27;;;7.27;;
17059;SDS011;8646;49.716;9.266;2022-10-18T15:15:19;6.67;;;2.17;;
17059;SDS011;8646;49.716;9.266;2022-10-18T15:18:24;1.70;;;0.60;;
17059;SDS011;8646;49.716;9.266;2022-10-18T15:21:30;2.30;;;0.80;;
17059;SDS011;8646;49.716;9.266;2022-10-18T15:24:34;1.00;;;0.70;;
17059;SDS011;8646;49.716;9.266;2022-10-18T15:27:38;3.43;;;1.63;;
17059;SDS011;8646;49.716;9.266;2022-10-18T15:30:43;1.40;;;0.80;;
17059;SDS011;8646;49.716;9.266;2022-10-18T15:33:46;1.80;;;0.70;;
17059;SDS011;8646;49.716;9.266;2022-10-18T15:36:51;1.67;;;0.60;;
17059;SDS011;8646;49.716;9.266;2022-10-18T15:43:32;2.90;;;1.40;;
17059;SDS011;8646;49.716;9.266;2022-10-18T15:46:38;2.10;;;1.20;;
17059;SDS011;8646;49.716;9.266;2022-10-18T15:56:40;2.43;;;0.90;;
17059;SDS011;8646;49.716;9.266;2022-10-18T15:59:47;13.97;;;6.53;;
17059;SDS011;8646;49.716;9.266;2022-10-18T16:02:53;15.53;;;8.97;;
17059;SDS011;8646;49.716;9.266;2022-10-18T16:05:57;3.00;;;1.53;;
17059;SDS011;8646;49.716;9.266;2022-10-18T16:09:04;8.40;;;2.63;;
17059;SDS011;8646;49.716;9.266;2022-10-18T16:12:08;3.13;;;1.10;;
17059;SDS011;8646;49.716;9.266;2022-10-18T16:15:11;12.00;;;1.30;;
17059;SDS011;8646;49.716;9.266;2022-10-18T16:18:14;7.37;;;1.90;;
17059;SDS011;8646;49.716;9.266;2022-10-18T16:21:21;6.80;;;3.60;;
17059;SDS011;8646;49.716;9.266;2022-10-18T16:24:25;36.90;;;18.57;;
17059;SDS011;8646;49.716;9.266;2022-10-18T16:27:29;16.27;;;6.90;;
17059;SDS011;8646;49.716;9.266;2022-10-18T16:30:32;25.20;;;9.53;;
17059;SDS011;8646;49.716;9.266;2022-10-18T16:33:37;34.73;;;16.90;;
17059;SDS011;8646;49.716;9.266;2022-10-18T16:36:39;47.17;;;24.57;;
17059;SDS011;8646;49.716;9.266;2022-10-18T16:39:42;17.30;;;8.43;;
17059;SDS011;8646;49.716;9.266;2022-10-18T16:42:46;18.03;;;7.37;;
17059;SDS011;8646;49.716;9.266;2022-10-18T16:45:50;29.63;;;11.37;;
17059;SDS011;8646;49.716;9.266;2022-10-18T16:48:54;13.83;;;3.70;;
17059;SDS011;8646;49.716;9.266;2022-10-18T16:51:58;7.37;;;2.20;;
17059;SDS011;8646;49.716;9.266;2022-10-18T16:55:00;10.33;;;3.33;;
17059;SDS011;8646;49.716;9.266;2022-10-18T16:58:05;41.13;;;21.43;;
17059;SDS011;8646;49.716;9.266;2022-10-18T17:01:09;20.00;;;9.93;;
17059;SDS011;8646;49.716;9.266;2022-10-18T17:04:12;21.80;;;8.50;;
17059;SDS011;8646;49.716;9.266;2022-10-18T17:07:17;96.30;;;38.27;;
17059;SDS011;8646;49.716;9.266;2022-10-18T17:10:25;26.03;;;11.60;;
17059;SDS011;8646;49.716;9.266;2022-10-18T17:13:30;30.60;;;16.17;;
17059;SDS011;8646;49.716;9.266;2022-10-18T17:16:34;21.83;;;10.87;;
17059;SDS011;8646;49.716;9.266;2022-10-18T17:19:39;18.80;;;9.43;;
17059;SDS011;8646;49.716;9.266;2022-10-18T17:22:43;8.40;;;3.80;;
17059;SDS011;8646;49.716;9.266;2022-10-18T17:25:46;6.13;;;3.37;;
17059;SDS011;8646;49.716;9.266;2022-10-18T17:29:10;4.23;;;1.80;;
17059;SDS011;8646;49.716;9.266;2022-10-18T17:32:13;4.30;;;1.70;;
17059;SDS011;8646;49.716;9.266;2022-10-18T17:35:16;3.67;;;1.93;;
17059;SDS011;8646;49.716;9.266;2022-10-18T17:38:18;4.90;;;2.07;;
17059;SDS011;8646;49.716;9.266;2022-10-18T17:41:21;7.97;;;2.30;;
17059;SDS011;8646;49.716;9.266;2022-10-18T17:44:26;8.40;;;2.37;;
17059;SDS011;8646;49.716;9.266;2022-10-18T17:47:29;7.03;;;1.97;;
17059;SDS011;8646;49.716;9.266;2022-10-18T17:50:32;8.43;;;2.70;;
17059;SDS011;8646;49.716;9.266;2022-10-18T17:53:35;6.53;;;2.60;;
17059;SDS011;8646;49.716;9.266;2022-10-18T17:56:39;7.93;;;2.83;;
17059;SDS011;8646;49.716;9.266;2022-10-18T17:59:44;7.03;;;3.00;;
17059;SDS011;8646;49.716;9.266;2022-10-18T18:02:48;9.10;;;2.43;;
17059;SDS011;8646;49.716;9.266;2022-10-18T18:05:51;6.13;;;3.10;;
17059;SDS011;8646;49.716;9.266;2022-10-18T18:08:54;3.03;;;2.10;;
17059;SDS011;8646;49.716;9.266;2022-10-18T18:11:56;8.53;;;1.93;;
17059;SDS011;8646;49.716;9.266;2022-10-18T18:15:00;3.53;;;1.90;;
17059;SDS011;8646;49.716;9.266;2022-10-18T18:18:03;26.27;;;15.77;;
17059;SDS011;8646;49.716;9.266;2022-10-18T18:21:06;40.37;;;24.37;;
17059;SDS011;8646;49.716;9.266;2022-10-18T18:24:09;14.57;;;4.20;;
17059;SDS011;8646;49.716;9.266;2022-10-18T18:27:14;8.13;;;3.80;;
17059;SDS011;8646;49.716;9.266;2022-10-18T18:30:18;5.73;;;2.30;;
17059;SDS011;8646;49.716;9.266;2022-10-18T18:33:22;4.70;;;2.80;;
17059;SDS011;8646;49.716;9.266;2022-10-18T18:36:25;11.93;;;5.30;;
17059;SDS011;8646;49.716;9.266;2022-10-18T18:39:30;6.17;;;1.73;;
17059;SDS011;8646;49.716;9.266;2022-10-18T18:42:36;7.83;;;3.80;;
17059;SDS011;8646;49.716;9.266;2022-10-18T18:45:40;26.20;;;13.20;;
17059;SDS011;8646;49.716;9.266;2022-10-18T18:48:43;18.17;;;8.57;;
17059;SDS011;8646;49.716;9.266;2022-10-18T18:51:46;7.40;;;4.00;;
17059;SDS011;8646;49.716;9.266;2022-10-18T18:54:48;5.73;;;2.23;;
17059;SDS011;8646;49.716;9.266;2022-10-18T18:57:51;17.83;;;5.23;;
17059;SDS011;8646;49.716;9.266;2022-10-18T19:00:55;30.23;;;13.30;;
17059;SDS011;8646;49.716;9.266;2022-10-18T19:03:59;20.40;;;8.23;;
17059;SDS011;8646;49.716;9.266;2022-10-18T19:07:02;17.23;;;6.07;;